Time;durP1;ratioP1;P1;durP2;ratioP2;P2;SDS_P1;SDS_P2;PMS_P1;PMS_P2;Temp;Humidity;BMP_temperature;BMP_pressure;BME280_temperature;BME280_humidity;BME280_pressure;Samples;Min_cycle;Max_cycle;Signal;HPM_P1;HPM_P2
2022/04/10 00:00:45;;;;;;;4.30;1.92;;;22.80;39.80;;;;;;5025802;28;20607;-45
2022/04/10 00:03:11;;;;;;;4.65;2.17;;;22.80;39.80;;;;;;5026060;28;20383;-44
2022/04/10 00:05:37;;;;;;;3.85;1.95;;;22.80;39.80;;;;;;5026156;28;20565;-44
2022/04/10 00:08:03;;;;;;;4.85;2.15;;;22.80;39.80;;;;;;5025892;28;20029;-45
2022/04/10 00:10:29;;;;;;;3.97;1.73;;;22.80;39.80;;;;;;5026204;28;20116;-45
2022/04/10 00:12:55;;;;;;;4.00;2.00;;;22.80;39.70;;;;;;5024351;28;20033;-45
2022/04/10 00:15:21;;;;;;;3.90;1.90;;;22.80;39.70;;;;;;5025049;28;20091;-46
2022/04/10 00:17:47;;;;;;;5.15;2.10;;;22.80;39.60;;;;;;5025781;28;20121;-46
2022/04/10 00:20:13;;;;;;;3.67;1.55;;;22.80;39.60;;;;;;5024844;28;20100;-44
2022/04/10 00:22:43;;;;;;;4.05;2.08;;;22.80;39.70;;;;;;5024919;28;20526;-46
2022/04/10 00:25:10;;;;;;;4.55;1.90;;;22.70;39.60;;;;;;5023411;28;20025;-45
2022/04/10 00:27:36;;;;;;;3.88;1.92;;;22.80;39.50;;;;;;5025375;28;20512;-45
2022/04/10 00:30:01;;;;;;;3.58;1.60;;;22.80;39.50;;;;;;5023691;28;20029;-46
2022/04/10 00:32:27;;;;;;;3.92;1.45;;;22.80;39.50;;;;;;5025412;28;20667;-46
2022/04/10 00:34:53;;;;;;;4.03;2.10;;;22.70;39.50;;;;;;5024890;28;20038;-44
2022/04/10 00:37:20;;;;;;;3.42;1.63;;;22.70;39.50;;;;;;5024546;28;20071;-46
2022/04/10 00:39:46;;;;;;;4.93;1.75;;;22.70;39.50;;;;;;5025649;28;20029;-45
2022/04/10 00:42:12;;;;;;;3.63;1.83;;;22.70;39.60;;;;;;5024779;28;20033;-47
2022/04/10 00:44:37;;;;;;;4.03;1.80;;;22.70;39.60;;;;;;5024195;28;20116;-44
2022/04/10 00:47:05;;;;;;;4.35;1.85;;;22.70;39.60;;;;;;5025528;28;20060;-45
2022/04/10 00:49:31;;;;;;;3.85;1.55;;;22.70;39.60;;;;;;5022479;28;20036;-45
2022/04/10 00:51:59;;;;;;;3.00;1.30;;;22.70;39.60;;;;;;5024988;28;20117;-46
2022/04/10 00:54:26;;;;;;;3.83;1.83;;;22.70;39.60;;;;;;5025070;28;20042;-44
2022/04/10 00:56:54;;;;;;;3.28;1.50;;;22.70;39.50;;;;;;5023541;28;20057;-44
2022/04/10 00:59:20;;;;;;;3.42;1.40;;;22.60;39.50;;;;;;5024432;28;20763;-44
2022/04/10 01:01:47;;;;;;;3.30;1.52;;;22.70;39.60;;;;;;5024944;28;20030;-43
2022/04/10 01:04:13;;;;;;;3.20;1.40;;;22.60;39.40;;;;;;5024852;28;20029;-44
2022/04/10 01:06:40;;;;;;;3.58;1.73;;;22.60;39.40;;;;;;5018900;28;20398;-44
2022/04/10 01:09:06;;;;;;;3.83;1.70;;;22.60;39.40;;;;;;5024223;28;20033;-45
2022/04/10 01:11:33;;;;;;;2.72;1.20;;;22.60;39.40;;;;;;5024766;28;20547;-44
2022/04/10 01:14:00;;;;;;;3.80;1.70;;;22.60;39.40;;;;;;5024924;28;20026;-45
2022/04/10 01:16:31;;;;;;;2.83;1.33;;;22.60;39.30;;;;;;5024870;28;20060;-45
2022/04/10 01:18:57;;;;;;;3.47;1.52;;;22.60;39.30;;;;;;5024263;28;20025;-46
2022/04/10 01:21:26;;;;;;;3.05;1.27;;;22.60;39.50;;;;;;5023662;28;20602;-45
2022/04/10 01:23:53;;;;;;;3.40;1.27;;;22.60;39.30;;;;;;5020490;28;20080;-46
2022/04/10 01:26:23;;;;;;;2.45;1.15;;;22.60;39.30;;;;;;5020227;28;20018;-44
2022/04/10 01:29:01;;;;;;;3.53;1.67;;;22.60;39.30;;;;;;5024669;28;20063;-46
2022/04/10 01:31:29;;;;;;;2.88;1.25;;;22.60;39.40;;;;;;5024135;28;20021;-44
2022/04/10 01:33:57;;;;;;;3.60;1.23;;;22.60;39.30;;;;;;5024248;28;20022;-44
2022/04/10 01:36:28;;;;;;;3.47;1.13;;;22.50;39.30;;;;;;5024550;28;20026;-45
2022/04/10 01:38:55;;;;;;;3.17;1.33;;;22.50;39.40;;;;;;5020917;28;20708;-46
2022/04/10 01:41:25;;;;;;;4.10;1.20;;;22.50;39.30;;;;;;5022721;28;20033;-44
2022/04/10 01:43:53;;;;;;;3.20;1.20;;;22.50;39.40;;;;;;5023751;28;20111;-44
2022/04/10 01:46:20;;;;;;;3.10;1.33;;;22.50;39.30;;;;;;5024545;28;20037;-46
2022/04/10 01:48:46;;;;;;;3.00;1.23;;;22.50;39.30;;;;;;5024307;28;20151;-44
2022/04/10 01:51:12;;;;;;;3.42;1.10;;;22.50;39.20;;;;;;5024145;28;20040;-45
2022/04/10 01:53:38;;;;;;;2.38;0.90;;;22.50;39.20;;;;;;5024133;28;20029;-44
2022/04/10 01:56:06;;;;;;;2.83;1.30;;;22.50;39.20;;;;;;5024532;28;20040;-44
2022/04/10 01:58:34;;;;;;;3.95;1.50;;;22.50;39.10;;;;;;5022591;28;20025;-44
2022/04/10 02:01:05;;;;;;;4.40;1.55;;;22.40;39.10;;;;;;5024514;28;20401;-45
2022/04/10 02:03:32;;;;;;;3.13;1.30;;;22.50;39.20;;;;;;5024127;28;20029;-44
2022/04/10 02:05:58;;;;;;;2.97;0.93;;;22.50;39.10;;;;;;5024135;28;20037;-46
2022/04/10 02:08:24;;;;;;;3.47;1.50;;;22.40;39.00;;;;;;5024089;28;20053;-44
2022/04/10 02:10:50;;;;;;;3.22;1.30;;;22.50;39.10;;;;;;5024696;28;20060;-44
2022/04/10 02:13:16;;;;;;;2.78;1.20;;;22.40;39.00;;;;;;5023825;28;20650;-47
2022/04/10 02:15:42;;;;;;;3.05;1.30;;;22.40;39.00;;;;;;5022758;28;20112;-45
2022/04/10 02:18:07;;;;;;;2.25;1.10;;;22.40;39.00;;;;;;5024350;28;20716;-45
2022/04/10 02:20:33;;;;;;;1.95;0.88;;;22.40;39.00;;;;;;5023460;28;20025;-47
2022/04/10 02:22:59;;;;;;;3.08;1.20;;;22.40;39.00;;;;;;5023666;28;20034;-44
2022/04/10 02:25:25;;;;;;;3.15;1.20;;;22.40;39.00;;;;;;5024320;28;20033;-44
2022/04/10 02:27:51;;;;;;;2.47;1.10;;;22.40;39.00;;;;;;5024579;28;20375;-44
2022/04/10 02:30:18;;;;;;;2.50;1.13;;;22.40;38.90;;;;;;5024193;28;20037;-46
2022/04/10 02:32:44;;;;;;;2.22;1.00;;;22.40;38.90;;;;;;5022229;28;20026;-45
2022/04/10 02:35:11;;;;;;;2.25;0.95;;;22.40;38.90;;;;;;5023956;28;20029;-46
2022/04/10 02:37:37;;;;;;;2.72;1.05;;;22.40;38.80;;;;;;5026109;28;20025;-45
2022/04/10 02:40:04;;;;;;;2.40;1.00;;;22.40;38.80;;;;;;5027538;28;20025;-44
2022/04/10 02:42:33;;;;;;;2.20;0.90;;;22.40;38.80;;;;;;5027758;28;20064;-46
2022/04/10 02:44:59;;;;;;;2.70;1.00;;;22.40;38.70;;;;;;5027589;28;20041;-45
2022/04/10 02:47:25;;;;;;;2.45;0.88;;;22.40;38.80;;;;;;5027228;28;20472;-44
2022/04/10 02:49:51;;;;;;;1.98;0.88;;;22.40;38.70;;;;;;5027700;28;20029;-44
2022/04/10 02:52:17;;;;;;;2.40;0.90;;;22.40;38.70;;;;;;5027228;28;20492;-46
2022/04/10 02:54:44;;;;;;;3.25;1.15;;;22.40;38.70;;;;;;5026156;28;20065;-45
2022/04/10 02:57:10;;;;;;;2.42;0.80;;;22.40;38.60;;;;;;5027533;28;20084;-45
2022/04/10 02:59:37;;;;;;;2.58;1.05;;;22.40;38.60;;;;;;5026541;28;20106;-44
2022/04/10 03:02:03;;;;;;;2.25;1.05;;;22.30;38.70;;;;;;5026874;28;20748;-44
2022/04/10 03:04:28;;;;;;;2.30;1.00;;;22.30;38.60;;;;;;5025231;28;20044;-47
2022/04/10 03:06:54;;;;;;;1.85;0.80;;;22.30;38.60;;;;;;5026704;28;20033;-44
2022/04/10 03:09:20;;;;;;;2.65;0.90;;;22.40;38.60;;;;;;5027184;28;20032;-45
2022/04/10 03:11:45;;;;;;;2.75;1.00;;;22.30;38.60;;;;;;5027115;28;20393;-44
2022/04/10 03:14:11;;;;;;;2.28;0.85;;;22.30;38.60;;;;;;5026701;28;20018;-46
2022/04/10 03:16:37;;;;;;;2.97;1.10;;;22.30;38.60;;;;;;5027014;28;20030;-44
2022/04/10 03:19:03;;;;;;;2.20;1.00;;;22.30;38.60;;;;;;5026890;28;20724;-44
2022/04/10 03:21:29;;;;;;;1.92;0.82;;;22.30;38.50;;;;;;5025772;28;20033;-43
2022/04/10 03:23:55;;;;;;;1.48;0.82;;;22.30;38.50;;;;;;5026829;28;20648;-44
2022/04/10 03:26:21;;;;;;;1.98;0.80;;;22.30;38.50;;;;;;5026758;28;20026;-43
2022/04/10 03:28:47;;;;;;;2.47;1.08;;;22.30;38.40;;;;;;5026070;28;20029;-44
2022/04/10 03:31:12;;;;;;;2.10;1.10;;;22.30;38.40;;;;;;5025724;28;20484;-45
2022/04/10 03:33:38;;;;;;;2.35;0.80;;;22.30;38.40;;;;;;5024997;28;20033;-46
2022/04/10 03:36:05;;;;;;;2.90;1.20;;;22.30;38.40;;;;;;5026757;28;20029;-44
2022/04/10 03:38:31;;;;;;;2.42;1.05;;;22.30;38.40;;;;;;5026733;28;20408;-45
2022/04/10 03:40:57;;;;;;;2.28;0.93;;;22.30;38.40;;;;;;5026765;28;20034;-44
2022/04/10 03:43:23;;;;;;;2.10;0.90;;;22.30;39.00;;;;;;5025786;28;20036;-44
2022/04/10 03:45:48;;;;;;;2.67;1.00;;;22.30;38.40;;;;;;5025442;28;20036;-44
2022/04/10 03:48:14;;;;;;;2.40;0.82;;;22.30;38.30;;;;;;5025385;28;20026;-45
2022/04/10 03:50:40;;;;;;;2.05;0.90;;;22.30;38.40;;;;;;5025872;28;20048;-44
2022/04/10 03:53:06;;;;;;;1.52;0.70;;;22.30;38.30;;;;;;5025397;28;20025;-44
2022/04/10 03:55:35;;;;;;;2.30;0.85;;;22.20;38.30;;;;;;5026187;28;20033;-45
2022/04/10 03:58:00;;;;;;;1.58;0.85;;;22.20;38.30;;;;;;5025688;28;20029;-46
2022/04/10 04:00:27;;;;;;;1.90;0.85;;;22.20;38.30;;;;;;5025274;28;20018;-45
2022/04/10 04:02:52;;;;;;;2.40;0.90;;;22.20;38.30;;;;;;5025007;28;20063;-45
2022/04/10 04:05:18;;;;;;;1.58;0.75;;;22.20;38.30;;;;;;5025553;28;20029;-45
2022/04/10 04:07:44;;;;;;;1.50;0.68;;;22.20;38.30;;;;;;5026041;28;20029;-45
2022/04/10 04:10:10;;;;;;;2.25;0.70;;;22.20;38.30;;;;;;5026053;28;20031;-44
2022/04/10 04:12:37;;;;;;;2.42;1.10;;;22.30;38.40;;;;;;5025891;28;20075;-43
2022/04/10 04:15:04;;;;;;;1.52;0.60;;;22.20;38.20;;;;;;5026029;28;20034;-45
2022/04/10 04:17:30;;;;;;;2.40;0.80;;;22.20;38.20;;;;;;5026023;28;20029;-44
2022/04/10 04:19:56;;;;;;;2.45;0.90;;;22.20;38.20;;;;;;5025994;28;20753;-45
2022/04/10 04:22:21;;;;;;;1.67;0.80;;;22.20;38.20;;;;;;5025785;28;20053;-44
2022/04/10 04:24:47;;;;;;;2.65;0.85;;;22.20;38.20;;;;;;5025799;28;20459;-44
2022/04/10 04:27:13;;;;;;;1.58;0.73;;;22.20;38.10;;;;;;5026076;28;20670;-44
2022/04/10 04:29:39;;;;;;;3.83;1.10;;;22.20;38.20;;;;;;5024663;28;20579;-43
2022/04/10 04:32:05;;;;;;;2.67;0.98;;;22.20;38.20;;;;;;5025388;28;20025;-43
2022/04/10 04:34:31;;;;;;;1.17;0.60;;;22.20;38.20;;;;;;5025402;28;20033;-44
2022/04/10 04:36:57;;;;;;;1.85;0.80;;;22.20;38.20;;;;;;5025301;28;20103;-44
2022/04/10 04:39:23;;;;;;;1.63;0.70;;;22.10;38.20;;;;;;5024243;28;20021;-44
2022/04/10 04:41:49;;;;;;;1.77;0.77;;;22.20;38.20;;;;;;5025575;28;20036;-44
2022/04/10 04:44:15;;;;;;;1.77;0.80;;;22.20;38.20;;;;;;5024771;28;20730;-45
2022/04/10 04:46:41;;;;;;;3.42;0.95;;;22.20;38.20;;;;;;5025424;28;20032;-45
2022/04/10 04:49:07;;;;;;;2.17;0.80;;;22.20;38.20;;;;;;5025343;28;20032;-45
2022/04/10 04:51:36;;;;;;;1.25;0.60;;;22.20;38.20;;;;;;5024675;28;20037;-45
2022/04/10 04:54:03;;;;;;;2.10;0.80;;;22.20;38.20;;;;;;5024970;28;20554;-45
2022/04/10 04:56:29;;;;;;;3.15;0.70;;;22.10;38.20;;;;;;5025142;28;20041;-45
2022/04/10 04:58:54;;;;;;;1.65;0.60;;;22.10;38.20;;;;;;5023874;28;20041;-44
2022/04/10 05:01:20;;;;;;;1.63;0.68;;;22.10;38.20;;;;;;5023164;28;20108;-43
2022/04/10 05:03:46;;;;;;;2.72;0.95;;;22.10;38.20;;;;;;5025043;28;20038;-45
2022/04/10 05:06:12;;;;;;;1.27;0.52;;;22.10;38.20;;;;;;5024390;28;20029;-45
2022/04/10 05:08:39;;;;;;;1.58;0.70;;;22.10;38.20;;;;;;5024323;28;20031;-44
2022/04/10 05:11:06;;;;;;;1.35;0.52;;;22.10;38.20;;;;;;5014190;28;20036;-45
2022/04/10 05:13:32;;;;;;;2.22;0.93;;;22.10;38.20;;;;;;5014463;28;20087;-46
2022/04/10 05:15:57;;;;;;;3.08;0.68;;;22.10;38.30;;;;;;5014514;28;20057;-45
2022/04/10 05:18:23;;;;;;;1.73;0.60;;;22.10;38.40;;;;;;5013036;28;20731;-45
2022/04/10 05:20:49;;;;;;;1.42;0.60;;;22.10;38.50;;;;;;5016595;28;20536;-44
2022/04/10 05:23:18;;;;;;;1.73;0.65;;;22.10;38.60;;;;;;5024188;28;20033;-45
2022/04/10 05:25:45;;;;;;;1.67;0.55;;;22.10;38.60;;;;;;5024108;28;20030;-44
2022/04/10 05:28:11;;;;;;;1.55;0.70;;;22.20;38.60;;;;;;5023373;28;20669;-44
2022/04/10 05:30:37;;;;;;;1.98;0.70;;;22.20;38.60;;;;;;5023921;28;20037;-46
2022/04/10 05:33:03;;;;;;;1.80;0.88;;;22.20;38.60;;;;;;5020373;28;20679;-44
2022/04/10 05:35:28;;;;;;;1.85;0.70;;;22.20;38.60;;;;;;5023088;28;20025;-44
2022/04/10 05:37:54;;;;;;;1.27;0.52;;;22.30;38.70;;;;;;5023551;28;20521;-45
2022/04/10 05:40:21;;;;;;;1.13;0.45;;;22.30;38.50;;;;;;5023834;28;20496;-44
2022/04/10 05:42:47;;;;;;;1.42;0.60;;;22.40;38.50;;;;;;5020161;28;20436;-45
2022/04/10 05:45:13;;;;;;;1.67;0.60;;;22.40;38.30;;;;;;5021590;28;20041;-44
2022/04/10 05:47:41;;;;;;;1.35;0.60;;;22.50;39.00;;;;;;5022078;28;20022;-45
2022/04/10 05:50:08;;;;;;;2.30;0.80;;;22.50;38.30;;;;;;5019828;28;20022;-46
2022/04/10 05:52:41;;;;;;;3.20;0.73;;;22.60;38.50;;;;;;5017448;28;20033;-45
2022/04/10 05:55:08;;;;;;;2.63;0.80;;;22.60;38.60;;;;;;5021875;28;20022;-46
2022/04/10 05:57:34;;;;;;;1.95;0.75;;;22.60;38.70;;;;;;5022130;28;20021;-44
2022/04/10 06:00:00;;;;;;;3.17;0.85;;;22.70;38.70;;;;;;5021492;28;20053;-45
2022/04/10 06:02:27;;;;;;;1.80;0.50;;;22.70;38.50;;;;;;5022807;28;20080;-45
2022/04/10 06:04:53;;;;;;;3.28;0.68;;;22.80;38.50;;;;;;5021841;28;20025;-47
2022/04/10 06:07:18;;;;;;;5.95;1.02;;;22.70;38.50;;;;;;5021601;28;20044;-47
2022/04/10 06:09:44;;;;;;;5.72;1.15;;;22.80;38.50;;;;;;5022198;28;20025;-46
2022/04/10 06:12:10;;;;;;;5.63;0.98;;;22.80;38.70;;;;;;5023797;28;20038;-45
2022/04/10 06:14:36;;;;;;;2.72;0.70;;;22.80;38.80;;;;;;5026692;28;20021;-46
2022/04/10 06:17:02;;;;;;;1.52;0.52;;;22.80;38.80;;;;;;5027263;28;20025;-47
2022/04/10 06:19:28;;;;;;;3.33;0.80;;;22.90;38.80;;;;;;5026916;28;20053;-47
2022/04/10 06:21:54;;;;;;;2.15;0.73;;;22.90;38.80;;;;;;5025501;28;20068;-45
2022/04/10 06:24:21;;;;;;;2.70;0.60;;;22.80;38.70;;;;;;5025936;28;20052;-48
2022/04/10 06:26:51;;;;;;;3.47;0.75;;;22.90;39.40;;;;;;5026398;28;20520;-45
2022/04/10 06:29:17;;;;;;;5.07;1.10;;;22.90;38.80;;;;;;5027370;28;20113;-46
2022/04/10 06:31:43;;;;;;;2.88;0.65;;;22.90;38.70;;;;;;5026564;28;20687;-43
2022/04/10 06:34:09;;;;;;;3.72;0.80;;;22.90;38.60;;;;;;5026166;28;20079;-46
2022/04/10 06:36:35;;;;;;;3.30;0.98;;;22.90;38.50;;;;;;5023106;28;20030;-45
2022/04/10 06:39:01;;;;;;;1.20;0.50;;;22.90;38.50;;;;;;5025527;28;20696;-46
2022/04/10 06:41:26;;;;;;;1.40;0.52;;;22.90;38.50;;;;;;5024969;28;20026;-45
2022/04/10 06:43:52;;;;;;;2.15;0.75;;;22.90;38.40;;;;;;5025526;28;20591;-46
2022/04/10 06:46:18;;;;;;;3.33;0.63;;;22.90;38.40;;;;;;5024861;28;20041;-46
2022/04/10 06:48:44;;;;;;;4.95;1.02;;;22.90;38.40;;;;;;5026276;28;20029;-48
2022/04/10 06:51:09;;;;;;;1.58;0.55;;;22.90;38.50;;;;;;5025290;28;20053;-47
2022/04/10 06:53:35;;;;;;;2.25;0.60;;;22.90;38.60;;;;;;5015436;28;20104;-48
2022/04/10 06:56:01;;;;;;;1.90;0.65;;;22.90;39.10;;;;;;4983859;28;20030;-48
2022/04/10 06:58:26;;;;;;;2.28;0.68;;;23.00;39.40;;;;;;5012992;28;20138;-48
2022/04/10 07:00:52;;;;;;;2.83;0.88;;;23.00;39.50;;;;;;5013900;28;20030;-45
2022/04/10 07:03:18;;;;;;;2.70;1.00;;;23.00;39.50;;;;;;5018221;28;20096;-47
2022/04/10 07:05:44;;;;;;;2.30;0.65;;;23.00;40.10;;;;;;5020875;28;20037;-45
2022/04/10 07:08:10;;;;;;;1.33;0.50;;;23.00;39.50;;;;;;5015542;28;20508;-46
2022/04/10 07:10:37;;;;;;;2.20;0.43;;;23.00;40.10;;;;;;5019800;28;20091;-45
2022/04/10 07:13:05;;;;;;;1.65;0.50;;;23.00;39.50;;;;;;5017457;28;20029;-48
2022/04/10 07:15:31;;;;;;;1.55;0.47;;;23.00;39.60;;;;;;5019115;28;20193;-47
2022/04/10 07:17:58;;;;;;;1.83;0.70;;;23.00;39.90;;;;;;5019918;28;20017;-46
2022/04/10 07:20:25;;;;;;;3.83;0.80;;;23.00;39.70;;;;;;5019827;28;20017;-47
2022/04/10 07:25:35;;;;;;;3.20;1.02;;;23.00;39.60;;;;;;5021833;28;20146;-46
2022/04/10 07:28:01;;;;;;;1.75;0.50;;;23.10;39.40;;;;;;5022425;28;20025;-47
2022/04/10 07:30:27;;;;;;;1.90;0.50;;;23.10;39.30;;;;;;5011956;28;20445;-47
2022/04/10 07:32:54;;;;;;;2.03;0.70;;;23.10;39.50;;;;;;5020068;28;20032;-46
2022/04/10 07:35:21;;;;;;;2.17;0.60;;;23.10;39.70;;;;;;5015583;28;21521;-46
2022/04/10 07:37:47;;;;;;;2.15;0.60;;;23.10;40.10;;;;;;5018925;28;20127;-46
2022/04/10 07:40:13;;;;;;;1.50;0.40;;;23.10;40.40;;;;;;5013076;28;20678;-46
2022/04/10 07:42:40;;;;;;;2.30;0.60;;;23.10;41.20;;;;;;5019214;28;20033;-47
2022/04/10 07:45:06;;;;;;;2.17;0.50;;;23.10;40.00;;;;;;5017297;28;20151;-44
2022/04/10 07:47:32;;;;;;;1.92;0.57;;;23.20;39.80;;;;;;5015355;28;20033;-46
2022/04/10 07:49:58;;;;;;;0.90;0.35;;;23.20;39.70;;;;;;5008284;28;20041;-47
2022/04/10 07:52:24;;;;;;;3.83;0.52;;;23.20;39.60;;;;;;5015682;28;20092;-45
2022/04/10 07:54:52;;;;;;;1.98;0.70;;;23.10;39.50;;;;;;5016835;28;20079;-45
2022/04/10 07:57:18;;;;;;;1.67;0.50;;;23.10;39.30;;;;;;5007049;28;20040;-46
2022/04/10 07:59:44;;;;;;;0.73;0.40;;;23.10;39.20;;;;;;5015970;28;20034;-47
2022/04/10 08:02:11;;;;;;;1.05;0.47;;;23.20;39.10;;;;;;5013423;28;20203;-46
2022/04/10 08:04:37;;;;;;;1.17;0.32;;;23.20;39.00;;;;;;5014301;28;20681;-46
2022/04/10 08:07:03;;;;;;;1.92;0.50;;;23.20;39.00;;;;;;5015757;28;20044;-44
2022/04/10 08:09:29;;;;;;;1.33;0.40;;;23.10;39.10;;;;;;5019429;28;20401;-43
2022/04/10 08:11:54;;;;;;;1.35;0.50;;;23.20;39.10;;;;;;5018645;28;20021;-43
2022/04/10 08:14:20;;;;;;;1.48;0.50;;;23.10;38.90;;;;;;5019655;28;20025;-44
2022/04/10 08:16:46;;;;;;;1.33;0.45;;;23.10;39.00;;;;;;5018383;28;20040;-46
2022/04/10 08:19:12;;;;;;;1.35;0.50;;;23.10;38.90;;;;;;5016412;28;20018;-45
2022/04/10 08:21:38;;;;;;;1.13;0.43;;;23.10;38.90;;;;;;5017966;28;20124;-46
2022/04/10 08:24:05;;;;;;;1.75;0.45;;;23.10;38.90;;;;;;5009413;28;20108;-46
2022/04/10 08:26:32;;;;;;;1.38;0.50;;;23.10;39.00;;;;;;5014277;28;20029;-47
2022/04/10 08:28:57;;;;;;;1.33;0.50;;;23.10;39.00;;;;;;5017665;28;20017;-44
2022/04/10 08:31:24;;;;;;;1.13;0.40;;;23.10;39.10;;;;;;5012012;28;20030;-45
2022/04/10 08:33:51;;;;;;;1.17;0.57;;;23.10;39.20;;;;;;5013471;28;20121;-45
2022/04/10 08:36:17;;;;;;;2.55;0.50;;;23.10;39.20;;;;;;5014197;28;20401;-43
2022/04/10 08:38:42;;;;;;;0.82;0.32;;;23.10;39.20;;;;;;5014384;28;20025;-41
2022/04/10 08:41:09;;;;;;;1.13;0.40;;;23.10;39.10;;;;;;5005830;28;20084;-42
2022/04/10 08:43:36;;;;;;;2.83;0.50;;;23.10;39.20;;;;;;5011655;28;20084;-42
2022/04/10 08:46:03;;;;;;;1.30;0.47;;;23.10;39.10;;;;;;5004687;28;20037;-42
2022/04/10 08:48:30;;;;;;;2.53;0.60;;;23.10;39.30;;;;;;5009480;28;20033;-45
2022/04/10 08:50:57;;;;;;;1.70;0.57;;;23.10;39.50;;;;;;5011160;28;20037;-44
2022/04/10 08:53:26;;;;;;;0.70;0.40;;;23.10;39.50;;;;;;5010992;28;20140;-44
2022/04/10 08:55:52;;;;;;;1.08;0.40;;;23.10;39.80;;;;;;5010438;28;20033;-46
2022/04/10 08:58:21;;;;;;;1.60;0.57;;;23.10;39.80;;;;;;5016716;28;20030;-45
2022/04/10 09:00:47;;;;;;;1.65;0.40;;;23.10;39.80;;;;;;5004299;28;20714;-45
2022/04/10 09:03:13;;;;;;;2.17;0.65;;;23.10;39.70;;;;;;5005779;28;20129;-45
2022/04/10 09:05:40;;;;;;;1.15;0.38;;;23.10;39.70;;;;;;5013580;28;20275;-45
2022/04/10 09:08:08;;;;;;;1.35;0.40;;;23.10;39.60;;;;;;5007070;28;20328;-44
2022/04/10 09:10:57;;;;;;;2.30;0.45;;;23.20;39.40;;;;;;5015292;28;20497;-44
2022/04/10 09:13:26;;;;;;;2.15;0.60;;;23.20;39.50;;;;;;5010402;28;20084;-46
2022/04/10 09:15:52;;;;;;;1.40;0.30;;;23.20;39.50;;;;;;5018968;28;20033;-39
2022/04/10 09:18:18;;;;;;;3.03;0.40;;;23.20;39.30;;;;;;5008488;28;20040;-40
2022/04/10 09:20:44;;;;;;;1.48;0.50;;;23.20;39.00;;;;;;5018455;28;20037;-40
2022/04/10 09:23:10;;;;;;;1.80;0.40;;;23.20;38.90;;;;;;5018474;28;20530;-40
2022/04/10 09:25:43;;;;;;;2.20;0.47;;;23.20;38.80;;;;;;5019448;28;20033;-40
2022/04/10 09:28:09;;;;;;;2.28;0.50;;;23.20;38.90;;;;;;5007690;28;20129;-40
2022/04/10 09:30:35;;;;;;;2.58;0.65;;;23.20;38.80;;;;;;5014948;28;20100;-43
2022/04/10 09:33:01;;;;;;;1.52;0.52;;;23.20;38.80;;;;;;5019390;28;20025;-43
2022/04/10 09:35:42;;;;;;;1.92;0.50;;;23.20;38.70;;;;;;5008730;28;20028;-43
2022/04/10 09:38:08;;;;;;;2.90;0.63;;;23.20;38.90;;;;;;5013848;28;20037;-43
2022/04/10 09:40:37;;;;;;;1.52;0.50;;;23.20;38.90;;;;;;5004412;28;20030;-43
2022/04/10 09:43:10;;;;;;;1.08;0.40;;;23.20;39.00;;;;;;5016818;28;20029;-43
2022/04/10 09:45:40;;;;;;;1.05;0.50;;;23.20;38.90;;;;;;5032198;28;20037;-42
2022/04/10 09:48:27;;;;;;;1.80;0.63;;;23.20;39.00;;;;;;5009718;28;20029;-43
2022/04/10 09:51:03;;;;;;;1.40;0.65;;;23.20;39.00;;;;;;5009815;28;20029;-42
2022/04/10 09:53:31;;;;;;;1.23;0.32;;;23.20;39.00;;;;;;5010461;28;20423;-42
2022/04/10 09:56:00;;;;;;;1.77;0.60;;;23.20;39.00;;;;;;5013762;28;20029;-44
2022/04/10 09:58:26;;;;;;;1.65;0.65;;;23.20;39.10;;;;;;5002321;28;20053;-44
2022/04/10 10:00:54;;;;;;;2.10;0.50;;;23.30;39.20;;;;;;5011119;28;20026;-44
2022/04/10 10:03:31;;;;;;;2.33;0.50;;;23.20;39.00;;;;;;5009271;28;20120;-43
2022/04/10 10:05:58;;;;;;;0.82;0.40;;;23.30;39.10;;;;;;5006143;28;20117;-44
2022/04/10 10:08:25;;;;;;;1.83;0.43;;;23.30;39.10;;;;;;5023565;28;20576;-43
2022/04/10 10:10:51;;;;;;;1.55;0.40;;;23.30;39.10;;;;;;5005246;28;20038;-44
2022/04/10 10:13:18;;;;;;;1.10;0.43;;;23.30;39.10;;;;;;5003584;28;20479;-44
2022/04/10 10:15:44;;;;;;;1.98;0.40;;;23.30;39.10;;;;;;5006066;28;20453;-44
2022/04/10 10:18:12;;;;;;;1.10;0.52;;;23.30;39.20;;;;;;5011722;28;20104;-44
2022/04/10 10:20:40;;;;;;;1.83;0.47;;;23.30;39.10;;;;;;5022886;28;20049;-43
2022/04/10 10:23:10;;;;;;;2.10;0.50;;;23.30;39.10;;;;;;5020051;28;20051;-44
2022/04/10 10:25:40;;;;;;;1.50;0.50;;;23.30;39.20;;;;;;5020275;28;20079;-43
2022/04/10 10:28:11;;;;;;;1.08;0.50;;;23.30;39.20;;;;;;5021562;28;20332;-44
2022/04/10 10:30:56;;;;;;;2.40;0.45;;;23.30;39.20;;;;;;5024615;28;20032;-45
2022/04/10 10:33:23;;;;;;;2.13;0.50;;;23.30;39.10;;;;;;5043280;28;20078;-43
2022/04/10 10:35:50;;;;;;;1.92;0.50;;;23.30;38.90;;;;;;5034075;28;20040;-43
2022/04/10 10:38:22;;;;;;;1.40;0.40;;;23.30;38.80;;;;;;5023167;28;20026;-42
2022/04/10 10:40:50;;;;;;;2.10;0.57;;;23.30;39.00;;;;;;5031026;28;20096;-42
2022/04/10 10:43:22;;;;;;;1.98;0.63;;;23.30;38.90;;;;;;5042691;28;20029;-42
2022/04/10 10:45:49;;;;;;;1.58;0.50;;;23.30;38.60;;;;;;5042894;28;20048;-42
2022/04/10 10:48:34;;;;;;;1.42;0.40;;;23.40;38.70;;;;;;5043039;28;20518;-42
2022/04/10 10:51:20;;;;;;;1.00;0.40;;;23.30;38.60;;;;;;5038869;28;20033;-42
2022/04/10 10:53:47;;;;;;;1.13;0.35;;;23.40;38.80;;;;;;5009761;28;20069;-42
2022/04/10 10:56:31;;;;;;;0.80;0.40;;;23.40;38.80;;;;;;5017077;28;20026;-42
2022/04/10 10:59:29;;;;;;;1.20;0.50;;;23.40;38.90;;;;;;5018332;28;20187;-44
2022/04/10 11:02:10;;;;;;;1.23;0.30;;;23.40;39.10;;;;;;5004544;28;20088;-43
2022/04/10 11:04:40;;;;;;;1.48;0.28;;;23.40;39.10;;;;;;5022205;28;20037;-44
2022/04/10 11:07:25;;;;;;;1.20;0.35;;;23.40;39.30;;;;;;5019752;28;20540;-43
2022/04/10 11:09:59;;;;;;;1.40;0.50;;;23.40;39.60;;;;;;5025398;28;20033;-43
2022/04/10 11:12:52;;;;;;;2.28;0.40;;;23.40;39.80;;;;;;5025721;28;20689;-42
2022/04/10 11:15:28;;;;;;;1.30;0.40;;;23.50;40.10;;;;;;5025360;28;20083;-42
2022/04/10 11:17:54;;;;;;;1.45;0.50;;;23.50;40.80;;;;;;5024349;28;20112;-43
2022/04/10 11:20:24;;;;;;;0.63;0.30;;;23.50;41.80;;;;;;5024314;28;20128;-43
2022/04/10 11:22:55;;;;;;;2.25;0.40;;;23.60;43.30;;;;;;5021010;28;20037;-43
2022/04/10 11:25:27;;;;;;;1.25;0.43;;;23.60;43.90;;;;;;5018828;28;20440;-43
2022/04/10 11:27:58;;;;;;;1.02;0.55;;;23.60;44.40;;;;;;5026196;28;20040;-42
2022/04/10 11:30:33;;;;;;;2.08;0.60;;;23.60;44.50;;;;;;5022382;28;20040;-43
2022/04/10 11:32:58;;;;;;;2.60;0.70;;;23.70;44.90;;;;;;5025614;28;20037;-42
2022/04/10 11:35:33;;;;;;;1.55;0.60;;;23.70;45.20;;;;;;5025452;28;20030;-42
2022/04/10 11:38:15;;;;;;;2.92;0.90;;;23.70;45.10;;;;;;5012868;28;20068;-43
2022/04/10 11:40:47;;;;;;;1.65;0.50;;;23.70;45.20;;;;;;5014469;28;20490;-42
2022/04/10 11:43:16;;;;;;;1.80;0.60;;;23.80;45.00;;;;;;5014039;28;20090;-42
2022/04/10 11:45:43;;;;;;;2.13;0.95;;;23.80;44.60;;;;;;5013850;28;20048;-43
2022/04/10 11:48:09;;;;;;;1.05;0.50;;;23.80;44.30;;;;;;5014129;28;20178;-42
2022/04/10 11:50:35;;;;;;;2.20;0.45;;;23.80;43.90;;;;;;5011951;28;20798;-41
2022/04/10 11:53:08;;;;;;;2.00;0.60;;;23.80;43.40;;;;;;5017588;28;20516;-43
2022/04/10 11:55:45;;;;;;;2.10;0.40;;;23.90;43.10;;;;;;5012373;28;20068;-43
2022/04/10 11:58:16;;;;;;;1.42;0.30;;;23.90;42.80;;;;;;5019516;28;20061;-45
2022/04/10 12:01:01;;;;;;;0.98;0.43;;;23.90;42.50;;;;;;5011766;28;20033;-42
2022/04/10 12:03:29;;;;;;;3.63;0.60;;;23.90;42.40;;;;;;5019467;28;20044;-43
2022/04/10 12:05:55;;;;;;;1.50;0.57;;;23.90;42.10;;;;;;5014139;28;20548;-43
2022/04/10 12:08:23;;;;;;;1.58;0.50;;;23.90;41.70;;;;;;5024646;28;20045;-42
2022/04/10 12:10:53;;;;;;;0.60;0.38;;;23.90;41.50;;;;;;5024694;28;20030;-43
2022/04/10 12:13:18;;;;;;;1.45;0.60;;;24.00;41.30;;;;;;5024233;28;20041;-43
2022/04/10 12:15:44;;;;;;;0.63;0.28;;;24.00;41.20;;;;;;5024966;28;20033;-43
2022/04/10 12:18:12;;;;;;;1.75;0.43;;;24.00;41.20;;;;;;5024888;28;20030;-42
2022/04/10 12:20:43;;;;;;;1.90;0.60;;;24.00;41.50;;;;;;5022926;28;20021;-43
2022/04/10 12:23:24;;;;;;;1.77;0.52;;;23.90;41.20;;;;;;5023715;28;20389;-42
2022/04/10 12:25:51;;;;;;;2.25;0.60;;;23.90;41.00;;;;;;5026266;28;20032;-42
2022/04/10 12:28:19;;;;;;;2.20;0.40;;;23.90;40.70;;;;;;5025282;28;20478;-42
2022/04/10 12:30:45;;;;;;;1.35;0.50;;;23.90;40.70;;;;;;5014867;28;20041;-45
2022/04/10 12:33:12;;;;;;;2.00;0.45;;;23.90;41.20;;;;;;5021704;28;20057;-44
2022/04/10 12:35:40;;;;;;;1.55;0.40;;;23.90;41.80;;;;;;5020853;28;20497;-44
2022/04/10 12:38:06;;;;;;;2.20;0.75;;;23.90;41.10;;;;;;5024193;28;20259;-44
2022/04/10 12:40:35;;;;;;;1.58;0.40;;;23.90;41.70;;;;;;5025202;28;20040;-44
2022/04/10 12:43:02;;;;;;;1.80;0.70;;;23.90;40.90;;;;;;5024933;28;20115;-44
2022/04/10 12:45:30;;;;;;;2.05;0.63;;;23.80;40.60;;;;;;5024988;28;20464;-43
2022/04/10 12:47:56;;;;;;;1.35;0.50;;;23.80;40.50;;;;;;5024951;28;20382;-44
2022/04/10 12:50:24;;;;;;;2.42;0.52;;;23.80;40.40;;;;;;5024709;28;20564;-43
2022/04/10 12:52:54;;;;;;;0.75;0.30;;;23.80;40.40;;;;;;5024284;28;20034;-43